Terminal Aerodrome Forecast
Issued by NWS Charleston, WV

Current Version | Previous Version | Graphics & Text | Print | Product List | Glossary On
Versions: 1 2 3 4 5 6 7 8 9 10 11 12 13 14 15 16 17 18 19 20 21 22 23 24 25 26 27
249
FTUS41 KRLX 021130
TAFBKW
TAF
KBKW 021130Z 0212/0312 20006KT P6SM BKN010 OVC025
     FM021500 25007KT P6SM OVC025
     FM021900 25010G16KT P6SM -SHRA VCTS BKN035CB
     FM022100 29006KT 5SM SHRA VCTS OVC025CB
     FM030600 29003KT 2SM BR OVC007=

USA.gov is the U.S. government's official web portal to all federal, state and local government web resources and services.